sensor_id;sensor_type;location;lat;lon;timestamp;P1;durP1;ratioP1;P2;durP2;ratioP2
57899;SDS011;60605;53.716;19.940;2023-12-20T00:03:47;35.30;;;25.70;;
57899;SDS011;60605;53.716;19.940;2023-12-20T00:08:50;19.40;;;12.60;;
57899;SDS011;60605;53.716;19.940;2023-12-20T00:13:52;23.00;;;15.60;;
57899;SDS011;60605;53.716;19.940;2023-12-20T00:18:54;16.90;;;11.80;;
57899;SDS011;60605;53.716;19.940;2023-12-20T00:23:57;26.80;;;16.40;;
57899;SDS011;60605;53.716;19.940;2023-12-20T00:28:59;18.30;;;13.80;;
57899;SDS011;60605;53.716;19.940;2023-12-20T00:34:01;13.40;;;12.00;;
57899;SDS011;60605;53.716;19.940;2023-12-20T00:39:03;14.90;;;11.50;;
57899;SDS011;60605;53.716;19.940;2023-12-20T00:44:06;11.20;;;10.10;;
57899;SDS011;60605;53.716;19.940;2023-12-20T00:49:08;12.80;;;11.50;;
57899;SDS011;60605;53.716;19.940;2023-12-20T00:54:10;16.50;;;12.60;;
57899;SDS011;60605;53.716;19.940;2023-12-20T00:59:12;12.90;;;11.00;;
57899;SDS011;60605;53.716;19.940;2023-12-20T01:04:14;13.10;;;10.80;;
57899;SDS011;60605;53.716;19.940;2023-12-20T01:09:16;13.10;;;11.70;;
57899;SDS011;60605;53.716;19.940;2023-12-20T01:14:18;12.10;;;10.70;;
57899;SDS011;60605;53.716;19.940;2023-12-20T01:19:20;12.60;;;11.10;;
57899;SDS011;60605;53.716;19.940;2023-12-20T01:24:23;11.60;;;10.40;;
57899;SDS011;60605;53.716;19.940;2023-12-20T01:29:25;11.00;;;9.90;;
57899;SDS011;60605;53.716;19.940;2023-12-20T01:34:27;12.50;;;11.00;;
57899;SDS011;60605;53.716;19.940;2023-12-20T01:39:30;11.00;;;9.40;;
57899;SDS011;60605;53.716;19.940;2023-12-20T01:44:32;12.60;;;10.40;;
57899;SDS011;60605;53.716;19.940;2023-12-20T01:49:34;16.30;;;14.50;;
57899;SDS011;60605;53.716;19.940;2023-12-20T01:59:40;12.50;;;11.10;;
57899;SDS011;60605;53.716;19.940;2023-12-20T02:04:42;12.30;;;10.90;;
57899;SDS011;60605;53.716;19.940;2023-12-20T02:09:45;11.70;;;10.60;;
57899;SDS011;60605;53.716;19.940;2023-12-20T02:14:47;12.30;;;10.60;;
57899;SDS011;60605;53.716;19.940;2023-12-20T02:19:49;10.10;;;9.00;;
57899;SDS011;60605;53.716;19.940;2023-12-20T02:24:51;10.60;;;9.50;;
57899;SDS011;60605;53.716;19.940;2023-12-20T02:29:53;11.70;;;10.60;;
57899;SDS011;60605;53.716;19.940;2023-12-20T02:34:55;13.50;;;10.70;;
57899;SDS011;60605;53.716;19.940;2023-12-20T02:39:58;11.80;;;10.60;;
57899;SDS011;60605;53.716;19.940;2023-12-20T02:45:00;13.30;;;11.00;;
57899;SDS011;60605;53.716;19.940;2023-12-20T02:50:02;12.10;;;10.80;;
57899;SDS011;60605;53.716;19.940;2023-12-20T02:55:04;11.70;;;10.00;;
57899;SDS011;60605;53.716;19.940;2023-12-20T03:00:10;13.70;;;12.10;;
57899;SDS011;60605;53.716;19.940;2023-12-20T03:05:14;12.30;;;10.80;;
57899;SDS011;60605;53.716;19.940;2023-12-20T03:10:17;11.70;;;10.50;;
57899;SDS011;60605;53.716;19.940;2023-12-20T03:15:27;13.70;;;10.80;;
57899;SDS011;60605;53.716;19.940;2023-12-20T03:20:29;12.00;;;10.70;;
57899;SDS011;60605;53.716;19.940;2023-12-20T03:25:35;10.80;;;9.60;;
57899;SDS011;60605;53.716;19.940;2023-12-20T03:30:37;10.60;;;9.50;;
57899;SDS011;60605;53.716;19.940;2023-12-20T03:35:40;10.10;;;9.10;;
57899;SDS011;60605;53.716;19.940;2023-12-20T03:40:42;10.40;;;9.40;;
57899;SDS011;60605;53.716;19.940;2023-12-20T03:46:09;10.60;;;9.50;;
57899;SDS011;60605;53.716;19.940;2023-12-20T03:51:11;9.50;;;8.60;;
57899;SDS011;60605;53.716;19.940;2023-12-20T03:56:13;10.10;;;9.00;;
57899;SDS011;60605;53.716;19.940;2023-12-20T04:01:15;9.60;;;8.50;;
57899;SDS011;60605;53.716;19.940;2023-12-20T04:06:18;9.10;;;8.20;;
57899;SDS011;60605;53.716;19.940;2023-12-20T04:11:20;10.70;;;8.60;;
57899;SDS011;60605;53.716;19.940;2023-12-20T04:16:22;9.60;;;7.70;;
57899;SDS011;60605;53.716;19.940;2023-12-20T04:21:24;9.10;;;7.90;;
57899;SDS011;60605;53.716;19.940;2023-12-20T04:26:26;7.90;;;6.90;;
57899;SDS011;60605;53.716;19.940;2023-12-20T04:31:28;9.70;;;8.00;;
57899;SDS011;60605;53.716;19.940;2023-12-20T04:36:30;7.30;;;6.60;;
57899;SDS011;60605;53.716;19.940;2023-12-20T04:41:32;7.80;;;6.50;;
57899;SDS011;60605;53.716;19.940;2023-12-20T04:46:34;6.90;;;6.10;;
57899;SDS011;60605;53.716;19.940;2023-12-20T04:51:36;6.70;;;6.10;;
57899;SDS011;60605;53.716;19.940;2023-12-20T04:56:38;7.20;;;6.50;;
57899;SDS011;60605;53.716;19.940;2023-12-20T05:01:40;7.10;;;6.40;;
57899;SDS011;60605;53.716;19.940;2023-12-20T05:06:42;7.20;;;5.90;;
57899;SDS011;60605;53.716;19.940;2023-12-20T05:11:44;7.40;;;6.50;;
57899;SDS011;60605;53.716;19.940;2023-12-20T05:16:47;8.90;;;6.80;;
57899;SDS011;60605;53.716;19.940;2023-12-20T05:21:49;8.10;;;7.00;;
57899;SDS011;60605;53.716;19.940;2023-12-20T05:26:51;7.50;;;6.70;;
57899;SDS011;60605;53.716;19.940;2023-12-20T05:31:55;6.90;;;6.10;;
57899;SDS011;60605;53.716;19.940;2023-12-20T05:37:00;7.50;;;6.70;;
57899;SDS011;60605;53.716;19.940;2023-12-20T05:42:03;6.30;;;5.60;;
57899;SDS011;60605;53.716;19.940;2023-12-20T05:47:05;5.90;;;4.80;;
57899;SDS011;60605;53.716;19.940;2023-12-20T05:52:07;5.90;;;3.80;;
57899;SDS011;60605;53.716;19.940;2023-12-20T05:57:09;6.10;;;3.90;;
57899;SDS011;60605;53.716;19.940;2023-12-20T06:02:11;5.90;;;3.20;;
57899;SDS011;60605;53.716;19.940;2023-12-20T06:07:13;8.00;;;3.40;;
57899;SDS011;60605;53.716;19.940;2023-12-20T06:12:16;6.10;;;2.90;;
57899;SDS011;60605;53.716;19.940;2023-12-20T06:17:18;10.40;;;4.50;;
57899;SDS011;60605;53.716;19.940;2023-12-20T06:22:20;9.00;;;4.30;;
57899;SDS011;60605;53.716;19.940;2023-12-20T06:27:22;6.40;;;3.90;;
57899;SDS011;60605;53.716;19.940;2023-12-20T06:32:24;6.00;;;3.90;;
57899;SDS011;60605;53.716;19.940;2023-12-20T06:37:26;8.20;;;4.80;;
57899;SDS011;60605;53.716;19.940;2023-12-20T06:42:28;5.80;;;3.50;;
57899;SDS011;60605;53.716;19.940;2023-12-20T06:47:32;6.10;;;3.60;;
57899;SDS011;60605;53.716;19.940;2023-12-20T06:52:34;7.50;;;4.70;;
57899;SDS011;60605;53.716;19.940;2023-12-20T06:57:37;21.20;;;8.30;;
57899;SDS011;60605;53.716;19.940;2023-12-20T07:02:39;16.30;;;8.10;;
57899;SDS011;60605;53.716;19.940;2023-12-20T07:07:41;8.90;;;5.60;;
57899;SDS011;60605;53.716;19.940;2023-12-20T07:12:44;18.80;;;9.30;;
57899;SDS011;60605;53.716;19.940;2023-12-20T07:17:46;12.00;;;4.70;;
57899;SDS011;60605;53.716;19.940;2023-12-20T07:22:49;7.30;;;3.70;;
57899;SDS011;60605;53.716;19.940;2023-12-20T07:27:51;8.10;;;4.20;;
57899;SDS011;60605;53.716;19.940;2023-12-20T07:32:53;7.10;;;4.40;;
57899;SDS011;60605;53.716;19.940;2023-12-20T07:37:55;14.60;;;7.60;;
57899;SDS011;60605;53.716;19.940;2023-12-20T07:42:58;22.10;;;11.50;;
57899;SDS011;60605;53.716;19.940;2023-12-20T07:48:00;18.30;;;9.50;;
57899;SDS011;60605;53.716;19.940;2023-12-20T07:53:02;9.20;;;5.50;;
57899;SDS011;60605;53.716;19.940;2023-12-20T07:58:04;6.80;;;4.30;;
57899;SDS011;60605;53.716;19.940;2023-12-20T08:03:07;12.80;;;7.00;;
57899;SDS011;60605;53.716;19.940;2023-12-20T08:08:09;8.10;;;6.00;;
57899;SDS011;60605;53.716;19.940;2023-12-20T08:13:11;44.00;;;24.40;;
57899;SDS011;60605;53.716;19.940;2023-12-20T08:18:13;17.60;;;7.80;;
57899;SDS011;60605;53.716;19.940;2023-12-20T08:23:16;10.40;;;5.40;;
57899;SDS011;60605;53.716;19.940;2023-12-20T08:28:18;15.90;;;6.40;;
57899;SDS011;60605;53.716;19.940;2023-12-20T08:33:21;13.80;;;6.90;;
57899;SDS011;60605;53.716;19.940;2023-12-20T08:38:23;10.30;;;6.10;;
57899;SDS011;60605;53.716;19.940;2023-12-20T08:43:25;12.60;;;6.20;;
57899;SDS011;60605;53.716;19.940;2023-12-20T08:48:28;9.20;;;5.70;;
57899;SDS011;60605;53.716;19.940;2023-12-20T08:53:30;17.10;;;8.10;;
57899;SDS011;60605;53.716;19.940;2023-12-20T08:58:32;9.00;;;5.60;;
57899;SDS011;60605;53.716;19.940;2023-12-20T09:03:35;11.10;;;6.00;;
57899;SDS011;60605;53.716;19.940;2023-12-20T09:08:37;13.00;;;6.80;;
57899;SDS011;60605;53.716;19.940;2023-12-20T09:13:39;16.70;;;7.40;;
57899;SDS011;60605;53.716;19.940;2023-12-20T09:18:41;14.80;;;7.90;;
57899;SDS011;60605;53.716;19.940;2023-12-20T09:28:46;11.70;;;7.30;;
57899;SDS011;60605;53.716;19.940;2023-12-20T09:33:49;11.10;;;6.50;;
57899;SDS011;60605;53.716;19.940;2023-12-20T09:38:51;9.40;;;5.30;;
57899;SDS011;60605;53.716;19.940;2023-12-20T09:43:53;8.70;;;5.20;;
57899;SDS011;60605;53.716;19.940;2023-12-20T09:48:57;7.40;;;4.70;;
57899;SDS011;60605;53.716;19.940;2023-12-20T09:54:02;7.40;;;4.30;;
57899;SDS011;60605;53.716;19.940;2023-12-20T09:59:07;7.30;;;4.00;;
57899;SDS011;60605;53.716;19.940;2023-12-20T10:04:10;8.60;;;4.80;;
57899;SDS011;60605;53.716;19.940;2023-12-20T10:09:31;7.50;;;4.60;;
57899;SDS011;60605;53.716;19.940;2023-12-20T10:19:36;11.10;;;4.80;;
57899;SDS011;60605;53.716;19.940;2023-12-20T10:29:41;13.80;;;5.20;;
57899;SDS011;60605;53.716;19.940;2023-12-20T10:34:44;8.10;;;4.80;;
57899;SDS011;60605;53.716;19.940;2023-12-20T10:39:50;9.50;;;4.70;;
57899;SDS011;60605;53.716;19.940;2023-12-20T10:44:54;7.10;;;4.60;;
57899;SDS011;60605;53.716;19.940;2023-12-20T10:49:57;14.90;;;4.30;;
57899;SDS011;60605;53.716;19.940;2023-12-20T10:55:02;6.60;;;4.10;;
57899;SDS011;60605;53.716;19.940;2023-12-20T11:00:06;7.10;;;4.30;;
57899;SDS011;60605;53.716;19.940;2023-12-20T11:05:20;8.10;;;3.50;;
57899;SDS011;60605;53.716;19.940;2023-12-20T11:10:38;7.30;;;4.20;;
57899;SDS011;60605;53.716;19.940;2023-12-20T11:15:44;9.00;;;5.50;;
57899;SDS011;60605;53.716;19.940;2023-12-20T11:25:52;7.60;;;4.20;;
57899;SDS011;60605;53.716;19.940;2023-12-20T11:30:55;5.60;;;3.70;;
57899;SDS011;60605;53.716;19.940;2023-12-20T11:36:01;10.10;;;5.20;;
57899;SDS011;60605;53.716;19.940;2023-12-20T11:41:05;8.10;;;4.60;;
57899;SDS011;60605;53.716;19.940;2023-12-20T11:46:09;8.80;;;5.70;;
57899;SDS011;60605;53.716;19.940;2023-12-20T11:51:12;9.00;;;6.20;;
57899;SDS011;60605;53.716;19.940;2023-12-20T11:56:15;9.60;;;6.20;;
57899;SDS011;60605;53.716;19.940;2023-12-20T12:01:19;11.50;;;6.40;;
57899;SDS011;60605;53.716;19.940;2023-12-20T12:06:24;21.80;;;11.40;;
57899;SDS011;60605;53.716;19.940;2023-12-20T12:11:26;11.80;;;7.30;;
57899;SDS011;60605;53.716;19.940;2023-12-20T12:16:29;11.80;;;8.20;;
57899;SDS011;60605;53.716;19.940;2023-12-20T12:21:32;10.10;;;7.70;;
57899;SDS011;60605;53.716;19.940;2023-12-20T12:26:35;14.40;;;8.30;;
57899;SDS011;60605;53.716;19.940;2023-12-20T12:31:37;11.70;;;7.90;;
57899;SDS011;60605;53.716;19.940;2023-12-20T12:36:40;10.30;;;6.60;;
57899;SDS011;60605;53.716;19.940;2023-12-20T12:41:43;8.90;;;6.20;;
57899;SDS011;60605;53.716;19.940;2023-12-20T12:46:48;9.40;;;5.20;;
57899;SDS011;60605;53.716;19.940;2023-12-20T12:51:55;9.80;;;6.40;;
57899;SDS011;60605;53.716;19.940;2023-12-20T12:57:00;10.50;;;5.50;;
57899;SDS011;60605;53.716;19.940;2023-12-20T13:02:02;6.50;;;4.20;;
57899;SDS011;60605;53.716;19.940;2023-12-20T13:07:04;10.10;;;5.40;;
57899;SDS011;60605;53.716;19.940;2023-12-20T13:12:07;9.60;;;5.00;;
57899;SDS011;60605;53.716;19.940;2023-12-20T13:17:09;6.50;;;4.30;;
57899;SDS011;60605;53.716;19.940;2023-12-20T13:22:12;5.00;;;3.90;;
57899;SDS011;60605;53.716;19.940;2023-12-20T13:27:14;6.60;;;4.80;;
57899;SDS011;60605;53.716;19.940;2023-12-20T13:32:16;10.00;;;5.30;;
57899;SDS011;60605;53.716;19.940;2023-12-20T13:37:21;10.10;;;5.40;;
57899;SDS011;60605;53.716;19.940;2023-12-20T13:42:23;5.20;;;4.50;;
57899;SDS011;60605;53.716;19.940;2023-12-20T13:47:25;12.40;;;6.50;;
57899;SDS011;60605;53.716;19.940;2023-12-20T13:52:27;8.30;;;5.80;;
57899;SDS011;60605;53.716;19.940;2023-12-20T13:57:30;9.90;;;5.70;;
57899;SDS011;60605;53.716;19.940;2023-12-20T14:02:39;6.30;;;5.20;;
57899;SDS011;60605;53.716;19.940;2023-12-20T14:07:40;15.50;;;8.30;;
57899;SDS011;60605;53.716;19.940;2023-12-20T14:12:48;15.70;;;11.80;;
57899;SDS011;60605;53.716;19.940;2023-12-20T14:17:51;8.60;;;6.20;;
57899;SDS011;60605;53.716;19.940;2023-12-20T14:22:54;11.00;;;6.50;;
57899;SDS011;60605;53.716;19.940;2023-12-20T14:27:58;8.60;;;6.10;;
57899;SDS011;60605;53.716;19.940;2023-12-20T14:33:02;10.90;;;7.30;;
57899;SDS011;60605;53.716;19.940;2023-12-20T14:38:05;11.40;;;6.80;;
57899;SDS011;60605;53.716;19.940;2023-12-20T14:43:08;8.50;;;7.20;;
57899;SDS011;60605;53.716;19.940;2023-12-20T14:48:11;10.50;;;7.50;;
57899;SDS011;60605;53.716;19.940;2023-12-20T14:53:14;13.60;;;8.10;;
57899;SDS011;60605;53.716;19.940;2023-12-20T14:58:20;9.10;;;8.00;;
57899;SDS011;60605;53.716;19.940;2023-12-20T15:03:23;10.10;;;8.60;;
57899;SDS011;60605;53.716;19.940;2023-12-20T15:08:25;16.30;;;10.30;;
57899;SDS011;60605;53.716;19.940;2023-12-20T15:13:28;12.10;;;8.00;;
57899;SDS011;60605;53.716;19.940;2023-12-20T15:18:31;11.00;;;7.60;;
57899;SDS011;60605;53.716;19.940;2023-12-20T15:23:33;10.30;;;8.20;;
57899;SDS011;60605;53.716;19.940;2023-12-20T15:28:36;11.90;;;7.90;;
57899;SDS011;60605;53.716;19.940;2023-12-20T15:38:41;9.00;;;7.30;;
57899;SDS011;60605;53.716;19.940;2023-12-20T15:43:44;9.00;;;7.50;;
57899;SDS011;60605;53.716;19.940;2023-12-20T15:53:49;11.20;;;8.20;;
57899;SDS011;60605;53.716;19.940;2023-12-20T15:58:52;11.60;;;8.70;;
57899;SDS011;60605;53.716;19.940;2023-12-20T16:03:56;14.10;;;10.70;;
57899;SDS011;60605;53.716;19.940;2023-12-20T16:09:01;8.80;;;6.10;;
57899;SDS011;60605;53.716;19.940;2023-12-20T16:14:04;11.10;;;7.30;;
57899;SDS011;60605;53.716;19.940;2023-12-20T16:19:07;11.20;;;6.90;;
57899;SDS011;60605;53.716;19.940;2023-12-20T16:24:09;10.00;;;5.60;;
57899;SDS011;60605;53.716;19.940;2023-12-20T16:29:11;8.10;;;5.30;;
57899;SDS011;60605;53.716;19.940;2023-12-20T16:34:15;11.50;;;5.80;;
57899;SDS011;60605;53.716;19.940;2023-12-20T16:39:18;7.40;;;5.10;;
57899;SDS011;60605;53.716;19.940;2023-12-20T16:44:25;7.60;;;5.60;;
57899;SDS011;60605;53.716;19.940;2023-12-20T16:49:28;9.90;;;5.60;;
57899;SDS011;60605;53.716;19.940;2023-12-20T16:54:30;12.80;;;7.20;;
57899;SDS011;60605;53.716;19.940;2023-12-20T16:59:33;30.10;;;15.50;;
57899;SDS011;60605;53.716;19.940;2023-12-20T17:04:35;977.10;;;499.40;;
57899;SDS011;60605;53.716;19.940;2023-12-20T17:09:38;1398.60;;;770.70;;
57899;SDS011;60605;53.716;19.940;2023-12-20T17:14:40;169.00;;;101.70;;
57899;SDS011;60605;53.716;19.940;2023-12-20T17:19:42;152.30;;;119.60;;
57899;SDS011;60605;53.716;19.940;2023-12-20T17:24:46;87.60;;;78.70;;
57899;SDS011;60605;53.716;19.940;2023-12-20T17:29:48;23.00;;;12.80;;
57899;SDS011;60605;53.716;19.940;2023-12-20T17:34:51;39.50;;;15.00;;
57899;SDS011;60605;53.716;19.940;2023-12-20T17:39:54;88.60;;;45.70;;
57899;SDS011;60605;53.716;19.940;2023-12-20T17:44:56;26.90;;;11.40;;
57899;SDS011;60605;53.716;19.940;2023-12-20T17:49:59;33.90;;;17.20;;
57899;SDS011;60605;53.716;19.940;2023-12-20T17:55:01;31.00;;;10.00;;
57899;SDS011;60605;53.716;19.940;2023-12-20T18:00:16;46.70;;;35.90;;
57899;SDS011;60605;53.716;19.940;2023-12-20T18:05:21;20.30;;;9.60;;
57899;SDS011;60605;53.716;19.940;2023-12-20T18:10:24;90.40;;;31.30;;
57899;SDS011;60605;53.716;19.940;2023-12-20T18:15:26;23.90;;;11.50;;
57899;SDS011;60605;53.716;19.940;2023-12-20T18:20:29;24.70;;;11.60;;
57899;SDS011;60605;53.716;19.940;2023-12-20T18:25:31;28.00;;;13.10;;
57899;SDS011;60605;53.716;19.940;2023-12-20T18:30:34;24.80;;;10.20;;
57899;SDS011;60605;53.716;19.940;2023-12-20T18:35:36;9.70;;;5.50;;
57899;SDS011;60605;53.716;19.940;2023-12-20T18:40:41;20.20;;;8.40;;
57899;SDS011;60605;53.716;19.940;2023-12-20T18:45:49;12.10;;;6.70;;
57899;SDS011;60605;53.716;19.940;2023-12-20T18:50:52;10.50;;;6.30;;
57899;SDS011;60605;53.716;19.940;2023-12-20T18:55:54;7.10;;;4.00;;
57899;SDS011;60605;53.716;19.940;2023-12-20T19:00:57;4.90;;;3.10;;
57899;SDS011;60605;53.716;19.940;2023-12-20T19:05:59;5.40;;;2.80;;
57899;SDS011;60605;53.716;19.940;2023-12-20T19:11:04;4.70;;;3.20;;
57899;SDS011;60605;53.716;19.940;2023-12-20T19:16:06;7.50;;;3.20;;
57899;SDS011;60605;53.716;19.940;2023-12-20T19:21:09;5.40;;;3.10;;
57899;SDS011;60605;53.716;19.940;2023-12-20T19:26:12;11.00;;;4.20;;
57899;SDS011;60605;53.716;19.940;2023-12-20T19:31:15;2.20;;;2.00;;
57899;SDS011;60605;53.716;19.940;2023-12-20T19:36:17;6.10;;;5.20;;
57899;SDS011;60605;53.716;19.940;2023-12-20T19:41:19;12.40;;;9.80;;
57899;SDS011;60605;53.716;19.940;2023-12-20T19:46:21;8.30;;;4.90;;
57899;SDS011;60605;53.716;19.940;2023-12-20T19:51:24;6.60;;;4.00;;
57899;SDS011;60605;53.716;19.940;2023-12-20T19:56:27;4.70;;;2.40;;
57899;SDS011;60605;53.716;19.940;2023-12-20T20:01:30;3.10;;;2.60;;
57899;SDS011;60605;53.716;19.940;2023-12-20T20:06:36;9.20;;;5.50;;
57899;SDS011;60605;53.716;19.940;2023-12-20T20:11:40;21.30;;;10.60;;
57899;SDS011;60605;53.716;19.940;2023-12-20T20:16:43;10.90;;;5.90;;
57899;SDS011;60605;53.716;19.940;2023-12-20T20:21:47;4.30;;;3.80;;
57899;SDS011;60605;53.716;19.940;2023-12-20T20:26:50;4.70;;;4.10;;
57899;SDS011;60605;53.716;19.940;2023-12-20T20:31:54;7.50;;;4.10;;
57899;SDS011;60605;53.716;19.940;2023-12-20T20:36:57;5.20;;;3.00;;
57899;SDS011;60605;53.716;19.940;2023-12-20T20:41:59;5.00;;;2.60;;
57899;SDS011;60605;53.716;19.940;2023-12-20T20:47:02;8.40;;;3.80;;
57899;SDS011;60605;53.716;19.940;2023-12-20T20:52:05;195.30;;;105.90;;
57899;SDS011;60605;53.716;19.940;2023-12-20T20:57:08;435.50;;;242.70;;
57899;SDS011;60605;53.716;19.940;2023-12-20T21:02:10;632.10;;;403.50;;
57899;SDS011;60605;53.716;19.940;2023-12-20T21:07:14;471.00;;;268.30;;
57899;SDS011;60605;53.716;19.940;2023-12-20T21:12:18;173.70;;;60.60;;
57899;SDS011;60605;53.716;19.940;2023-12-20T21:22:24;33.70;;;27.20;;
57899;SDS011;60605;53.716;19.940;2023-12-20T21:27:28;76.40;;;23.00;;
57899;SDS011;60605;53.716;19.940;2023-12-20T21:32:33;398.00;;;93.50;;
57899;SDS011;60605;53.716;19.940;2023-12-20T21:37:37;477.50;;;220.90;;
57899;SDS011;60605;53.716;19.940;2023-12-20T21:42:40;263.20;;;50.70;;
57899;SDS011;60605;53.716;19.940;2023-12-20T21:47:44;547.70;;;166.50;;
57899;SDS011;60605;53.716;19.940;2023-12-20T21:52:48;107.20;;;28.90;;
57899;SDS011;60605;53.716;19.940;2023-12-20T21:57:50;244.60;;;62.30;;
57899;SDS011;60605;53.716;19.940;2023-12-20T22:02:55;64.20;;;20.30;;
57899;SDS011;60605;53.716;19.940;2023-12-20T22:07:59;182.20;;;80.20;;
57899;SDS011;60605;53.716;19.940;2023-12-20T22:13:02;95.60;;;27.80;;
57899;SDS011;60605;53.716;19.940;2023-12-20T22:18:09;73.40;;;62.00;;
57899;SDS011;60605;53.716;19.940;2023-12-20T22:23:11;67.40;;;19.40;;
57899;SDS011;60605;53.716;19.940;2023-12-20T22:28:13;54.50;;;19.40;;
57899;SDS011;60605;53.716;19.940;2023-12-20T22:33:16;63.90;;;21.20;;
57899;SDS011;60605;53.716;19.940;2023-12-20T22:38:20;44.70;;;16.50;;
57899;SDS011;60605;53.716;19.940;2023-12-20T22:43:23;96.30;;;27.80;;
57899;SDS011;60605;53.716;19.940;2023-12-20T22:48:25;45.60;;;17.20;;
57899;SDS011;60605;53.716;19.940;2023-12-20T22:53:28;41.90;;;25.80;;
57899;SDS011;60605;53.716;19.940;2023-12-20T22:58:30;70.90;;;20.90;;
57899;SDS011;60605;53.716;19.940;2023-12-20T23:03:32;15.10;;;7.70;;
57899;SDS011;60605;53.716;19.940;2023-12-20T23:08:34;29.80;;;12.90;;
57899;SDS011;60605;53.716;19.940;2023-12-20T23:13:37;35.20;;;19.70;;
57899;SDS011;60605;53.716;19.940;2023-12-20T23:18:39;108.20;;;28.40;;
57899;SDS011;60605;53.716;19.940;2023-12-20T23:23:42;43.00;;;16.10;;
57899;SDS011;60605;53.716;19.940;2023-12-20T23:28:47;43.10;;;15.30;;
57899;SDS011;60605;53.716;19.940;2023-12-20T23:33:50;23.50;;;10.40;;
57899;SDS011;60605;53.716;19.940;2023-12-20T23:38:53;38.60;;;18.30;;
57899;SDS011;60605;53.716;19.940;2023-12-20T23:43:59;18.50;;;8.80;;
57899;SDS011;60605;53.716;19.940;2023-12-20T23:49:01;12.90;;;6.90;;
57899;SDS011;60605;53.716;19.940;2023-12-20T23:54:04;15.10;;;7.50;;
57899;SDS011;60605;53.716;19.940;2023-12-20T23:59:06;14.70;;;7.90;;
